This is the latest recevied weather packets stored in our database for station/object XE2KK-10. If no packets are shown the sender has not sent any weather packets the latest 10 day(s).
| Time | Temp. | Humidity | Pressure | Rain* | Wind** | Luminosity | Snow |
|---|---|---|---|---|---|---|---|
| 1777828753 | 21.67° C | 53% | 1022.1 hPa | 0 mm | - | 681 W/m² | - |
| 1777828453 | 22.78° C | 51% | 1022.4 hPa | 0 mm | - | 809 W/m² | - |
| 1777828153 | 22.22° C | 51% | 1022.1 hPa | 0 mm | - | 532 W/m² | - |
| 1777827852 | 21.11° C | 53% | 1022.4 hPa | 0 mm | - | 681 W/m² | - |
| 1777827552 | 22.22° C | 51% | 1022.2 hPa | 0 mm | - | 713 W/m² | - |
| 1777827252 | 22.22° C | 50% | 1022.4 hPa | 0 mm | - | 930 W/m² | - |
| 1777826953 | 21.67° C | 51% | 1022.3 hPa | 0 mm | - | 894 W/m² | - |
| 1777826653 | 21.67° C | 53% | 1022.4 hPa | 0 mm | - | 695 W/m² | - |
| 1777826353 | 22.22° C | 50% | 1022.6 hPa | 0 mm | - | 579 W/m² | - |
| 1777826052 | 22.22° C | 50% | 1022.4 hPa | 0 mm | - | 714 W/m² | - |
| 1777825752 | 21.67° C | 51% | 1022.7 hPa | 0 mm | - | 788 W/m² | - |
| 1777825453 | 21.67° C | 52% | 1022.5 hPa | 0 mm | - | 582 W/m² | - |
| 1777825153 | 21.67° C | 52% | 1022.7 hPa | 0 mm | - | 761 W/m² | - |
| 1777824853 | 21.11° C | 52% | 1022.7 hPa | 0 mm | - | 708 W/m² | - |
| 1777824553 | 21.11° C | 51% | 1022.7 hPa | 0 mm | - | 693 W/m² | - |
| 1777824252 | 20.56° C | 54% | 1022.8 hPa | 0 mm | - | 599 W/m² | - |
| 1777823952 | 20° C | 55% | 1023 hPa | 0 mm | - | 661 W/m² | - |
| 1777823653 | 20.56° C | 54% | 1022.6 hPa | 0 mm | - | 649 W/m² | - |
| 1777823353 | 20° C | 54% | 1022.9 hPa | 0 mm | - | 646 W/m² | - |
| 1777823053 | 20° C | 55% | 1023.2 hPa | 0 mm | - | 652 W/m² | - |
| 1777822753 | 19.44° C | 57% | 1022.9 hPa | 0 mm | - | 646 W/m² | - |
| 1777822452 | 20° C | 53% | 1022.9 hPa | 0 mm | - | 644 W/m² | - |
| 1777822152 | 20° C | 54% | 1022.9 hPa | 0 mm | - | 630 W/m² | - |
| 1777821853 | 20° C | 55% | 1022.9 hPa | 0 mm | - | 622 W/m² | - |
| 1777821553 | 20° C | 54% | 1023.1 hPa | 0 mm | - | 437 W/m² | - |
* Rain latest hour (hover to see other rain measurements)
** Current wind speed in m/s (hover to see current wind gust speed)